sensor_id;sensor_type;location;lat;lon;timestamp;temperature;humidity
23540;DHT22;11947;50.810;4.394;2022-11-21T00:00:56;7.30;99.90
23540;DHT22;11947;50.810;4.394;2022-11-21T00:03:21;7.30;99.90
23540;DHT22;11947;50.810;4.394;2022-11-21T00:05:49;7.30;99.90
23540;DHT22;11947;50.810;4.394;2022-11-21T00:08:17;7.20;99.90
23540;DHT22;11947;50.810;4.394;2022-11-21T00:10:44;7.30;99.90
23540;DHT22;11947;50.810;4.394;2022-11-21T00:13:18;7.20;99.90
23540;DHT22;11947;50.810;4.394;2022-11-21T00:15:44;7.10;99.90
23540;DHT22;11947;50.810;4.394;2022-11-21T00:18:10;7.10;99.90
23540;DHT22;11947;50.810;4.394;2022-11-21T00:20:37;7.10;99.90
23540;DHT22;11947;50.810;4.394;2022-11-21T00:23:04;7.10;99.90
23540;DHT22;11947;50.810;4.394;2022-11-21T00:25:29;7.00;99.90
23540;DHT22;11947;50.810;4.394;2022-11-21T00:27:55;7.00;99.90
23540;DHT22;11947;50.810;4.394;2022-11-21T00:30:21;7.00;99.90
23540;DHT22;11947;50.810;4.394;2022-11-21T00:32:46;6.90;99.90
23540;DHT22;11947;50.810;4.394;2022-11-21T00:35:12;7.00;99.90
23540;DHT22;11947;50.810;4.394;2022-11-21T00:37:38;7.00;99.90
23540;DHT22;11947;50.810;4.394;2022-11-21T00:40:04;7.10;99.90
23540;DHT22;11947;50.810;4.394;2022-11-21T00:42:30;7.10;99.90
23540;DHT22;11947;50.810;4.394;2022-11-21T00:44:56;7.10;99.90
23540;DHT22;11947;50.810;4.394;2022-11-21T00:47:21;7.10;99.90
23540;DHT22;11947;50.810;4.394;2022-11-21T00:49:47;7.20;99.90
23540;DHT22;11947;50.810;4.394;2022-11-21T00:52:13;7.10;99.90
23540;DHT22;11947;50.810;4.394;2022-11-21T00:54:38;7.20;99.90
23540;DHT22;11947;50.810;4.394;2022-11-21T00:57:04;7.20;99.90
23540;DHT22;11947;50.810;4.394;2022-11-21T00:59:30;7.20;99.90
23540;DHT22;11947;50.810;4.394;2022-11-21T01:01:55;7.20;99.90
23540;DHT22;11947;50.810;4.394;2022-11-21T01:04:21;7.30;99.90
23540;DHT22;11947;50.810;4.394;2022-11-21T01:06:46;7.20;99.90
23540;DHT22;11947;50.810;4.394;2022-11-21T01:09:12;7.20;99.90
23540;DHT22;11947;50.810;4.394;2022-11-21T01:11:38;7.20;99.90
23540;DHT22;11947;50.810;4.394;2022-11-21T01:14:04;7.20;99.90
23540;DHT22;11947;50.810;4.394;2022-11-21T01:16:30;7.10;99.90
23540;DHT22;11947;50.810;4.394;2022-11-21T01:18:56;7.20;99.90
23540;DHT22;11947;50.810;4.394;2022-11-21T01:21:23;7.20;99.90
23540;DHT22;11947;50.810;4.394;2022-11-21T01:23:50;7.20;99.90
23540;DHT22;11947;50.810;4.394;2022-11-21T01:26:18;7.20;99.90
23540;DHT22;11947;50.810;4.394;2022-11-21T01:28:44;7.20;99.90
23540;DHT22;11947;50.810;4.394;2022-11-21T01:31:13;7.20;99.90
23540;DHT22;11947;50.810;4.394;2022-11-21T01:33:59;7.20;99.90
23540;DHT22;11947;50.810;4.394;2022-11-21T01:58:21;7.20;99.90
23540;DHT22;11947;50.810;4.394;2022-11-21T02:04:32;7.20;99.90
23540;DHT22;11947;50.810;4.394;2022-11-21T02:13:11;7.20;99.90
23540;DHT22;11947;50.810;4.394;2022-11-21T02:15:51;7.20;99.90
23540;DHT22;11947;50.810;4.394;2022-11-21T02:18:16;7.30;99.90
23540;DHT22;11947;50.810;4.394;2022-11-21T02:20:57;7.30;99.90
23540;DHT22;11947;50.810;4.394;2022-11-21T02:26:25;7.30;99.90
23540;DHT22;11947;50.810;4.394;2022-11-21T02:28:51;7.30;99.90
23540;DHT22;11947;50.810;4.394;2022-11-21T02:31:22;7.20;99.90
23540;DHT22;11947;50.810;4.394;2022-11-21T02:33:54;7.20;99.90
23540;DHT22;11947;50.810;4.394;2022-11-21T02:36:44;7.10;99.90
23540;DHT22;11947;50.810;4.394;2022-11-21T02:39:22;7.10;99.90
23540;DHT22;11947;50.810;4.394;2022-11-21T02:47:55;6.90;99.90
23540;DHT22;11947;50.810;4.394;2022-11-21T02:50:32;6.90;99.90
23540;DHT22;11947;50.810;4.394;2022-11-21T02:53:21;6.80;99.90
23540;DHT22;11947;50.810;4.394;2022-11-21T02:55:46;6.80;99.90
23540;DHT22;11947;50.810;4.394;2022-11-21T02:58:15;6.90;99.90
23540;DHT22;11947;50.810;4.394;2022-11-21T03:01:10;6.70;99.90
23540;DHT22;11947;50.810;4.394;2022-11-21T03:03:39;6.70;99.90
23540;DHT22;11947;50.810;4.394;2022-11-21T03:06:04;6.60;99.90
23540;DHT22;11947;50.810;4.394;2022-11-21T03:08:33;6.60;99.90
23540;DHT22;11947;50.810;4.394;2022-11-21T03:11:08;6.60;99.90
23540;DHT22;11947;50.810;4.394;2022-11-21T03:13:51;6.70;99.90
23540;DHT22;11947;50.810;4.394;2022-11-21T03:16:20;6.60;99.90
23540;DHT22;11947;50.810;4.394;2022-11-21T03:18:45;6.50;99.90
23540;DHT22;11947;50.810;4.394;2022-11-21T03:21:20;6.60;99.90
23540;DHT22;11947;50.810;4.394;2022-11-21T03:23:49;6.60;99.90
23540;DHT22;11947;50.810;4.394;2022-11-21T03:26:24;6.60;99.90
23540;DHT22;11947;50.810;4.394;2022-11-21T03:29:02;6.70;99.90
23540;DHT22;11947;50.810;4.394;2022-11-21T03:31:28;6.80;99.90
23540;DHT22;11947;50.810;4.394;2022-11-21T03:33:56;6.70;99.90
23540;DHT22;11947;50.810;4.394;2022-11-21T03:36:22;6.70;99.90
23540;DHT22;11947;50.810;4.394;2022-11-21T03:38:48;6.70;99.90
23540;DHT22;11947;50.810;4.394;2022-11-21T03:41:14;6.60;99.90
23540;DHT22;11947;50.810;4.394;2022-11-21T03:43:59;6.70;99.90
23540;DHT22;11947;50.810;4.394;2022-11-21T03:46:26;6.70;99.90
23540;DHT22;11947;50.810;4.394;2022-11-21T03:48:52;6.60;99.90
23540;DHT22;11947;50.810;4.394;2022-11-21T03:51:18;6.70;99.90
23540;DHT22;11947;50.810;4.394;2022-11-21T03:53:44;6.70;99.90
23540;DHT22;11947;50.810;4.394;2022-11-21T03:56:10;6.80;99.90
23540;DHT22;11947;50.810;4.394;2022-11-21T03:58:36;6.80;99.90
23540;DHT22;11947;50.810;4.394;2022-11-21T04:01:02;6.70;99.90
23540;DHT22;11947;50.810;4.394;2022-11-21T04:03:28;6.80;99.90
23540;DHT22;11947;50.810;4.394;2022-11-21T04:05:53;6.80;99.90
23540;DHT22;11947;50.810;4.394;2022-11-21T04:08:19;6.90;99.90
23540;DHT22;11947;50.810;4.394;2022-11-21T04:10:52;6.80;99.90
23540;DHT22;11947;50.810;4.394;2022-11-21T04:13:17;6.80;99.90
23540;DHT22;11947;50.810;4.394;2022-11-21T04:15:46;6.70;99.90
23540;DHT22;11947;50.810;4.394;2022-11-21T04:18:12;6.80;99.90
23540;DHT22;11947;50.810;4.394;2022-11-21T04:20:41;6.80;99.90
23540;DHT22;11947;50.810;4.394;2022-11-21T04:23:07;6.80;99.90
23540;DHT22;11947;50.810;4.394;2022-11-21T04:25:32;6.90;99.90
23540;DHT22;11947;50.810;4.394;2022-11-21T04:31:06;6.90;99.90
23540;DHT22;11947;50.810;4.394;2022-11-21T04:33:32;6.80;99.90
23540;DHT22;11947;50.810;4.394;2022-11-21T04:35:58;6.80;99.90
23540;DHT22;11947;50.810;4.394;2022-11-21T04:38:24;6.70;99.90
23540;DHT22;11947;50.810;4.394;2022-11-21T04:40:49;6.80;99.90
23540;DHT22;11947;50.810;4.394;2022-11-21T04:43:15;6.70;99.90
23540;DHT22;11947;50.810;4.394;2022-11-21T05:02:02;6.50;99.90
23540;DHT22;11947;50.810;4.394;2022-11-21T05:04:28;6.50;99.90
23540;DHT22;11947;50.810;4.394;2022-11-21T05:06:53;6.60;99.90
23540;DHT22;11947;50.810;4.394;2022-11-21T05:09:19;6.50;99.90
23540;DHT22;11947;50.810;4.394;2022-11-21T05:11:45;6.30;99.90
23540;DHT22;11947;50.810;4.394;2022-11-21T05:14:29;6.30;99.90
23540;DHT22;11947;50.810;4.394;2022-11-21T05:16:55;6.40;99.90
23540;DHT22;11947;50.810;4.394;2022-11-21T05:19:20;6.20;99.90
23540;DHT22;11947;50.810;4.394;2022-11-21T05:21:46;6.20;99.90
23540;DHT22;11947;50.810;4.394;2022-11-21T05:24:11;6.20;99.90
23540;DHT22;11947;50.810;4.394;2022-11-21T05:26:37;6.10;99.90
23540;DHT22;11947;50.810;4.394;2022-11-21T05:29:03;6.10;99.90
23540;DHT22;11947;50.810;4.394;2022-11-21T05:31:29;6.10;99.90
23540;DHT22;11947;50.810;4.394;2022-11-21T05:33:55;6.20;99.90
23540;DHT22;11947;50.810;4.394;2022-11-21T05:36:21;6.10;99.90
23540;DHT22;11947;50.810;4.394;2022-11-21T05:38:46;6.10;99.90
23540;DHT22;11947;50.810;4.394;2022-11-21T05:41:12;6.10;99.90
23540;DHT22;11947;50.810;4.394;2022-11-21T05:43:37;6.10;99.90
23540;DHT22;11947;50.810;4.394;2022-11-21T05:46:17;6.10;99.90
23540;DHT22;11947;50.810;4.394;2022-11-21T05:48:43;6.00;99.90
23540;DHT22;11947;50.810;4.394;2022-11-21T05:51:10;6.00;99.90
23540;DHT22;11947;50.810;4.394;2022-11-21T05:53:35;6.00;99.90
23540;DHT22;11947;50.810;4.394;2022-11-21T05:56:07;5.90;99.90
23540;DHT22;11947;50.810;4.394;2022-11-21T05:58:33;5.90;99.90
23540;DHT22;11947;50.810;4.394;2022-11-21T06:00:59;5.80;99.90
23540;DHT22;11947;50.810;4.394;2022-11-21T06:03:25;5.80;99.90
23540;DHT22;11947;50.810;4.394;2022-11-21T06:06:12;5.70;99.90
23540;DHT22;11947;50.810;4.394;2022-11-21T06:08:44;5.70;99.90
23540;DHT22;11947;50.810;4.394;2022-11-21T06:11:11;5.60;99.90
23540;DHT22;11947;50.810;4.394;2022-11-21T06:13:37;5.60;99.90
23540;DHT22;11947;50.810;4.394;2022-11-21T06:16:11;5.70;99.90
23540;DHT22;11947;50.810;4.394;2022-11-21T06:18:39;5.60;99.90
23540;DHT22;11947;50.810;4.394;2022-11-21T06:21:08;5.50;99.90
23540;DHT22;11947;50.810;4.394;2022-11-21T06:23:35;5.50;99.90
23540;DHT22;11947;50.810;4.394;2022-11-21T06:26:03;5.50;99.90
23540;DHT22;11947;50.810;4.394;2022-11-21T06:28:37;5.50;99.90
23540;DHT22;11947;50.810;4.394;2022-11-21T06:31:13;5.40;99.90
23540;DHT22;11947;50.810;4.394;2022-11-21T06:33:40;5.40;99.90
23540;DHT22;11947;50.810;4.394;2022-11-21T06:36:11;5.30;99.90
23540;DHT22;11947;50.810;4.394;2022-11-21T06:38:37;5.30;99.90
23540;DHT22;11947;50.810;4.394;2022-11-21T06:41:10;5.20;99.90
23540;DHT22;11947;50.810;4.394;2022-11-21T06:43:35;5.30;99.90
23540;DHT22;11947;50.810;4.394;2022-11-21T06:46:01;5.20;99.90
23540;DHT22;11947;50.810;4.394;2022-11-21T06:48:32;5.10;99.90
23540;DHT22;11947;50.810;4.394;2022-11-21T06:51:13;5.20;99.90
23540;DHT22;11947;50.810;4.394;2022-11-21T06:53:40;5.10;99.90
23540;DHT22;11947;50.810;4.394;2022-11-21T06:56:06;5.10;99.90
23540;DHT22;11947;50.810;4.394;2022-11-21T06:58:31;5.10;99.90
23540;DHT22;11947;50.810;4.394;2022-11-21T07:01:02;5.10;99.90
23540;DHT22;11947;50.810;4.394;2022-11-21T07:03:28;5.10;99.90
23540;DHT22;11947;50.810;4.394;2022-11-21T07:05:53;5.10;99.90
23540;DHT22;11947;50.810;4.394;2022-11-21T07:08:22;5.10;99.90
23540;DHT22;11947;50.810;4.394;2022-11-21T07:10:48;5.10;99.90
23540;DHT22;11947;50.810;4.394;2022-11-21T07:13:13;5.10;99.90
23540;DHT22;11947;50.810;4.394;2022-11-21T07:15:51;5.00;99.90
23540;DHT22;11947;50.810;4.394;2022-11-21T07:18:18;5.10;99.90
23540;DHT22;11947;50.810;4.394;2022-11-21T07:20:44;5.00;99.90
23540;DHT22;11947;50.810;4.394;2022-11-21T07:23:10;5.00;99.90
23540;DHT22;11947;50.810;4.394;2022-11-21T07:25:39;5.20;99.90
23540;DHT22;11947;50.810;4.394;2022-11-21T07:28:06;5.00;99.90
23540;DHT22;11947;50.810;4.394;2022-11-21T07:30:32;5.10;99.90
23540;DHT22;11947;50.810;4.394;2022-11-21T07:33:01;5.10;99.90
23540;DHT22;11947;50.810;4.394;2022-11-21T07:35:28;5.20;99.90
23540;DHT22;11947;50.810;4.394;2022-11-21T07:37:53;5.20;99.90
23540;DHT22;11947;50.810;4.394;2022-11-21T07:40:20;5.20;99.90
23540;DHT22;11947;50.810;4.394;2022-11-21T07:42:46;5.30;99.90
23540;DHT22;11947;50.810;4.394;2022-11-21T07:45:12;5.30;99.90
23540;DHT22;11947;50.810;4.394;2022-11-21T07:47:38;5.20;99.90
23540;DHT22;11947;50.810;4.394;2022-11-21T07:50:05;5.20;99.90
23540;DHT22;11947;50.810;4.394;2022-11-21T07:52:31;5.20;99.90
23540;DHT22;11947;50.810;4.394;2022-11-21T07:54:57;5.40;99.90
23540;DHT22;11947;50.810;4.394;2022-11-21T07:57:23;5.40;99.90
23540;DHT22;11947;50.810;4.394;2022-11-21T07:59:49;5.40;99.90
23540;DHT22;11947;50.810;4.394;2022-11-21T08:02:23;5.50;99.90
23540;DHT22;11947;50.810;4.394;2022-11-21T08:04:49;5.60;99.90
23540;DHT22;11947;50.810;4.394;2022-11-21T08:07:16;5.60;99.90
23540;DHT22;11947;50.810;4.394;2022-11-21T08:09:42;5.60;99.90
23540;DHT22;11947;50.810;4.394;2022-11-21T08:12:08;5.70;99.90
23540;DHT22;11947;50.810;4.394;2022-11-21T08:14:34;5.90;99.90
23540;DHT22;11947;50.810;4.394;2022-11-21T08:16:59;5.90;99.90
23540;DHT22;11947;50.810;4.394;2022-11-21T08:19:25;6.00;99.90
23540;DHT22;11947;50.810;4.394;2022-11-21T08:21:54;6.00;99.90
23540;DHT22;11947;50.810;4.394;2022-11-21T08:24:19;6.00;99.90
23540;DHT22;11947;50.810;4.394;2022-11-21T08:26:45;6.00;99.90
23540;DHT22;11947;50.810;4.394;2022-11-21T08:29:12;6.10;99.90
23540;DHT22;11947;50.810;4.394;2022-11-21T08:31:40;6.20;99.90
23540;DHT22;11947;50.810;4.394;2022-11-21T08:34:06;6.30;99.90
23540;DHT22;11947;50.810;4.394;2022-11-21T08:36:33;6.40;99.90
23540;DHT22;11947;50.810;4.394;2022-11-21T08:38:58;6.30;99.90
23540;DHT22;11947;50.810;4.394;2022-11-21T08:41:24;6.50;99.90
23540;DHT22;11947;50.810;4.394;2022-11-21T08:44:08;6.60;99.90
23540;DHT22;11947;50.810;4.394;2022-11-21T08:46:34;6.60;99.90
23540;DHT22;11947;50.810;4.394;2022-11-21T08:49:02;6.70;99.90
23540;DHT22;11947;50.810;4.394;2022-11-21T08:51:28;6.50;99.90
23540;DHT22;11947;50.810;4.394;2022-11-21T08:53:57;6.60;99.90
23540;DHT22;11947;50.810;4.394;2022-11-21T08:56:23;6.80;99.90
23540;DHT22;11947;50.810;4.394;2022-11-21T08:58:48;6.70;99.90
23540;DHT22;11947;50.810;4.394;2022-11-21T09:01:14;6.50;99.90
23540;DHT22;11947;50.810;4.394;2022-11-21T09:03:40;6.50;99.90
23540;DHT22;11947;50.810;4.394;2022-11-21T09:06:06;6.60;99.90
23540;DHT22;11947;50.810;4.394;2022-11-21T09:08:32;6.70;99.90
23540;DHT22;11947;50.810;4.394;2022-11-21T09:11:05;6.90;99.90
23540;DHT22;11947;50.810;4.394;2022-11-21T09:13:32;7.00;99.90
23540;DHT22;11947;50.810;4.394;2022-11-21T09:16:01;7.00;99.90
23540;DHT22;11947;50.810;4.394;2022-11-21T09:18:46;7.10;99.90
23540;DHT22;11947;50.810;4.394;2022-11-21T09:21:20;7.20;99.90
23540;DHT22;11947;50.810;4.394;2022-11-21T09:23:48;7.20;99.90
23540;DHT22;11947;50.810;4.394;2022-11-21T09:26:17;7.20;99.90
23540;DHT22;11947;50.810;4.394;2022-11-21T09:28:42;7.30;99.90
23540;DHT22;11947;50.810;4.394;2022-11-21T09:31:08;7.40;99.90
23540;DHT22;11947;50.810;4.394;2022-11-21T09:33:34;7.50;99.90
23540;DHT22;11947;50.810;4.394;2022-11-21T09:36:06;7.70;99.90
23540;DHT22;11947;50.810;4.394;2022-11-21T09:38:31;7.70;99.90
23540;DHT22;11947;50.810;4.394;2022-11-21T09:41:15;7.60;99.90
23540;DHT22;11947;50.810;4.394;2022-11-21T09:44:13;7.50;99.90
23540;DHT22;11947;50.810;4.394;2022-11-21T09:46:46;7.50;99.90
23540;DHT22;11947;50.810;4.394;2022-11-21T09:49:12;7.60;99.90
23540;DHT22;11947;50.810;4.394;2022-11-21T09:51:40;7.50;99.90
23540;DHT22;11947;50.810;4.394;2022-11-21T09:54:21;7.50;99.90
23540;DHT22;11947;50.810;4.394;2022-11-21T09:56:47;7.60;99.90
23540;DHT22;11947;50.810;4.394;2022-11-21T10:01:52;7.50;99.90
23540;DHT22;11947;50.810;4.394;2022-11-21T10:04:18;7.50;99.90
23540;DHT22;11947;50.810;4.394;2022-11-21T10:07:00;7.50;99.90
23540;DHT22;11947;50.810;4.394;2022-11-21T10:09:37;7.60;99.90
23540;DHT22;11947;50.810;4.394;2022-11-21T10:12:17;7.70;99.90
23540;DHT22;11947;50.810;4.394;2022-11-21T10:25:54;7.10;99.90
23540;DHT22;11947;50.810;4.394;2022-11-21T10:30:50;7.00;99.90
23540;DHT22;11947;50.810;4.394;2022-11-21T10:33:37;7.20;99.90
23540;DHT22;11947;50.810;4.394;2022-11-21T10:36:30;7.20;99.90
23540;DHT22;11947;50.810;4.394;2022-11-21T10:39:02;7.20;99.90
23540;DHT22;11947;50.810;4.394;2022-11-21T10:41:37;7.40;99.90
23540;DHT22;11947;50.810;4.394;2022-11-21T10:44:27;7.40;99.90
23540;DHT22;11947;50.810;4.394;2022-11-21T10:49:41;7.60;99.90
23540;DHT22;11947;50.810;4.394;2022-11-21T10:52:15;7.80;99.90
23540;DHT22;11947;50.810;4.394;2022-11-21T10:55:08;8.10;99.90
23540;DHT22;11947;50.810;4.394;2022-11-21T10:57:41;8.20;99.90
23540;DHT22;11947;50.810;4.394;2022-11-21T11:02:36;8.00;99.90
23540;DHT22;11947;50.810;4.394;2022-11-21T11:05:32;8.10;99.90
23540;DHT22;11947;50.810;4.394;2022-11-21T11:08:11;8.00;99.90
23540;DHT22;11947;50.810;4.394;2022-11-21T11:11:11;8.00;99.90
23540;DHT22;11947;50.810;4.394;2022-11-21T11:13:29;8.10;99.90
23540;DHT22;11947;50.810;4.394;2022-11-21T11:18:53;8.20;99.90
23540;DHT22;11947;50.810;4.394;2022-11-21T11:21:40;8.40;99.90
23540;DHT22;11947;50.810;4.394;2022-11-21T11:24:21;8.40;99.90
23540;DHT22;11947;50.810;4.394;2022-11-21T11:31:47;8.60;99.90
23540;DHT22;11947;50.810;4.394;2022-11-21T11:34:15;8.60;99.90
23540;DHT22;11947;50.810;4.394;2022-11-21T11:48:10;8.60;99.90
23540;DHT22;11947;50.810;4.394;2022-11-21T11:50:59;8.60;99.90
23540;DHT22;11947;50.810;4.394;2022-11-21T11:53:36;8.70;99.90
23540;DHT22;11947;50.810;4.394;2022-11-21T11:56:18;8.80;99.90
23540;DHT22;11947;50.810;4.394;2022-11-21T12:02:02;8.70;99.90
23540;DHT22;11947;50.810;4.394;2022-11-21T12:04:43;8.80;99.90
23540;DHT22;11947;50.810;4.394;2022-11-21T12:07:21;8.80;99.90
23540;DHT22;11947;50.810;4.394;2022-11-21T12:10:12;8.70;99.90
23540;DHT22;11947;50.810;4.394;2022-11-21T12:12:44;8.60;99.90
23540;DHT22;11947;50.810;4.394;2022-11-21T12:15:24;8.50;99.90
23540;DHT22;11947;50.810;4.394;2022-11-21T12:21:04;8.80;99.90
23540;DHT22;11947;50.810;4.394;2022-11-21T12:23:55;8.90;99.90
23540;DHT22;11947;50.810;4.394;2022-11-21T12:30:05;8.80;99.90
23540;DHT22;11947;50.810;4.394;2022-11-21T12:37:44;8.90;99.90
23540;DHT22;11947;50.810;4.394;2022-11-21T12:46:16;9.10;99.90
23540;DHT22;11947;50.810;4.394;2022-11-21T13:06:02;9.50;99.90
23540;DHT22;11947;50.810;4.394;2022-11-21T13:08:30;9.40;99.90
23540;DHT22;11947;50.810;4.394;2022-11-21T13:11:10;9.40;99.90
23540;DHT22;11947;50.810;4.394;2022-11-21T13:16:47;9.40;99.90
23540;DHT22;11947;50.810;4.394;2022-11-21T13:25:01;9.20;99.90
23540;DHT22;11947;50.810;4.394;2022-11-21T13:27:28;9.20;99.90
23540;DHT22;11947;50.810;4.394;2022-11-21T13:38:01;9.30;99.90
23540;DHT22;11947;50.810;4.394;2022-11-21T13:43:23;9.20;99.90
23540;DHT22;11947;50.810;4.394;2022-11-21T13:45:49;9.30;99.90
23540;DHT22;11947;50.810;4.394;2022-11-21T14:04:25;9.20;99.90
23540;DHT22;11947;50.810;4.394;2022-11-21T14:07:23;9.10;99.90
23540;DHT22;11947;50.810;4.394;2022-11-21T14:09:51;9.20;99.90
23540;DHT22;11947;50.810;4.394;2022-11-21T14:12:32;9.20;99.90
23540;DHT22;11947;50.810;4.394;2022-11-21T14:22:57;9.00;99.90
23540;DHT22;11947;50.810;4.394;2022-11-21T14:25:40;9.00;99.90
23540;DHT22;11947;50.810;4.394;2022-11-21T14:28:10;9.00;99.90
23540;DHT22;11947;50.810;4.394;2022-11-21T14:30:39;9.00;99.90
23540;DHT22;11947;50.810;4.394;2022-11-21T14:33:28;8.90;99.90
23540;DHT22;11947;50.810;4.394;2022-11-21T14:36:03;9.00;99.90
23540;DHT22;11947;50.810;4.394;2022-11-21T14:38:39;9.00;99.90
23540;DHT22;11947;50.810;4.394;2022-11-21T14:46:34;8.90;99.90
23540;DHT22;11947;50.810;4.394;2022-11-21T14:55:03;8.80;99.90
23540;DHT22;11947;50.810;4.394;2022-11-21T14:57:31;8.80;99.90
23540;DHT22;11947;50.810;4.394;2022-11-21T14:59:58;8.80;99.90
23540;DHT22;11947;50.810;4.394;2022-11-21T15:02:27;8.80;99.90
23540;DHT22;11947;50.810;4.394;2022-11-21T15:04:59;8.70;99.90
23540;DHT22;11947;50.810;4.394;2022-11-21T15:07:34;8.80;99.90
23540;DHT22;11947;50.810;4.394;2022-11-21T15:10:00;8.80;99.90
23540;DHT22;11947;50.810;4.394;2022-11-21T15:12:35;8.80;99.90
23540;DHT22;11947;50.810;4.394;2022-11-21T15:17:43;8.70;99.90
23540;DHT22;11947;50.810;4.394;2022-11-21T15:22:39;8.60;99.90
23540;DHT22;11947;50.810;4.394;2022-11-21T15:27:47;8.50;99.90
23540;DHT22;11947;50.810;4.394;2022-11-21T15:30:23;8.50;99.90
23540;DHT22;11947;50.810;4.394;2022-11-21T15:33:51;8.50;99.90
23540;DHT22;11947;50.810;4.394;2022-11-21T15:35:54;8.60;99.90
23540;DHT22;11947;50.810;4.394;2022-11-21T15:41:22;8.70;99.90
23540;DHT22;11947;50.810;4.394;2022-11-21T15:43:52;8.70;99.90
23540;DHT22;11947;50.810;4.394;2022-11-21T15:48:56;8.70;99.90
23540;DHT22;11947;50.810;4.394;2022-11-21T15:51:39;8.50;99.90
23540;DHT22;11947;50.810;4.394;2022-11-21T15:54:09;8.50;99.90
23540;DHT22;11947;50.810;4.394;2022-11-21T15:56:34;8.50;99.90
23540;DHT22;11947;50.810;4.394;2022-11-21T15:59:03;8.50;99.90
23540;DHT22;11947;50.810;4.394;2022-11-21T16:01:29;8.60;99.90
23540;DHT22;11947;50.810;4.394;2022-11-21T16:03:56;8.60;99.90
23540;DHT22;11947;50.810;4.394;2022-11-21T16:06:22;8.50;99.90
23540;DHT22;11947;50.810;4.394;2022-11-21T16:08:48;8.50;99.90
23540;DHT22;11947;50.810;4.394;2022-11-21T16:11:25;8.50;99.90
23540;DHT22;11947;50.810;4.394;2022-11-21T16:13:56;8.50;99.90
23540;DHT22;11947;50.810;4.394;2022-11-21T16:16:24;8.50;99.90
23540;DHT22;11947;50.810;4.394;2022-11-21T16:18:54;8.60;99.90
23540;DHT22;11947;50.810;4.394;2022-11-21T16:21:21;8.40;99.90
23540;DHT22;11947;50.810;4.394;2022-11-21T16:23:47;8.40;99.90
23540;DHT22;11947;50.810;4.394;2022-11-21T16:26:12;8.30;99.90
23540;DHT22;11947;50.810;4.394;2022-11-21T16:28:39;8.30;99.90
23540;DHT22;11947;50.810;4.394;2022-11-21T16:31:28;8.20;99.90
23540;DHT22;11947;50.810;4.394;2022-11-21T16:33:57;8.20;99.90
23540;DHT22;11947;50.810;4.394;2022-11-21T16:36:28;8.10;99.90
23540;DHT22;11947;50.810;4.394;2022-11-21T16:38:54;8.00;99.90
23540;DHT22;11947;50.810;4.394;2022-11-21T16:41:22;8.00;99.90
23540;DHT22;11947;50.810;4.394;2022-11-21T16:43:50;7.90;99.90
23540;DHT22;11947;50.810;4.394;2022-11-21T16:46:17;7.90;99.90
23540;DHT22;11947;50.810;4.394;2022-11-21T16:48:43;7.90;99.90
23540;DHT22;11947;50.810;4.394;2022-11-21T16:51:11;7.90;99.90
23540;DHT22;11947;50.810;4.394;2022-11-21T16:53:38;7.80;99.90
23540;DHT22;11947;50.810;4.394;2022-11-21T16:56:05;7.80;99.90
23540;DHT22;11947;50.810;4.394;2022-11-21T16:58:31;7.80;99.90
23540;DHT22;11947;50.810;4.394;2022-11-21T17:00:56;7.90;99.90
23540;DHT22;11947;50.810;4.394;2022-11-21T17:03:22;7.90;99.90
23540;DHT22;11947;50.810;4.394;2022-11-21T17:05:58;7.90;99.90
23540;DHT22;11947;50.810;4.394;2022-11-21T17:08:26;8.00;99.90
23540;DHT22;11947;50.810;4.394;2022-11-21T17:10:52;7.90;99.90
23540;DHT22;11947;50.810;4.394;2022-11-21T17:13:17;7.80;99.90
23540;DHT22;11947;50.810;4.394;2022-11-21T17:15:43;7.80;99.90
23540;DHT22;11947;50.810;4.394;2022-11-21T17:18:09;7.70;99.90
23540;DHT22;11947;50.810;4.394;2022-11-21T17:20:35;7.60;99.90
23540;DHT22;11947;50.810;4.394;2022-11-21T17:23:00;7.60;99.90
23540;DHT22;11947;50.810;4.394;2022-11-21T17:25:27;7.70;99.90
23540;DHT22;11947;50.810;4.394;2022-11-21T17:27:53;7.70;99.90
23540;DHT22;11947;50.810;4.394;2022-11-21T17:30:19;7.60;99.90
23540;DHT22;11947;50.810;4.394;2022-11-21T17:32:45;7.60;99.90
23540;DHT22;11947;50.810;4.394;2022-11-21T17:35:11;7.60;99.90
23540;DHT22;11947;50.810;4.394;2022-11-21T17:37:42;7.50;99.90
23540;DHT22;11947;50.810;4.394;2022-11-21T17:40:16;7.50;99.90
23540;DHT22;11947;50.810;4.394;2022-11-21T17:42:44;7.40;99.90
23540;DHT22;11947;50.810;4.394;2022-11-21T17:45:10;7.50;99.90
23540;DHT22;11947;50.810;4.394;2022-11-21T17:47:35;7.50;99.90
23540;DHT22;11947;50.810;4.394;2022-11-21T17:50:01;7.50;99.90
23540;DHT22;11947;50.810;4.394;2022-11-21T17:52:29;7.40;99.90
23540;DHT22;11947;50.810;4.394;2022-11-21T17:54:55;7.40;99.90
23540;DHT22;11947;50.810;4.394;2022-11-21T17:57:20;7.40;99.90
23540;DHT22;11947;50.810;4.394;2022-11-21T17:59:46;7.50;99.90
23540;DHT22;11947;50.810;4.394;2022-11-21T18:02:12;7.50;99.90
23540;DHT22;11947;50.810;4.394;2022-11-21T18:04:37;7.50;99.90
23540;DHT22;11947;50.810;4.394;2022-11-21T18:07:04;7.50;99.90
23540;DHT22;11947;50.810;4.394;2022-11-21T18:09:31;7.40;99.90
23540;DHT22;11947;50.810;4.394;2022-11-21T18:11:56;7.40;99.90
23540;DHT22;11947;50.810;4.394;2022-11-21T18:14:27;7.40;99.90
23540;DHT22;11947;50.810;4.394;2022-11-21T18:16:56;7.40;99.90
23540;DHT22;11947;50.810;4.394;2022-11-21T18:19:22;7.50;99.90
23540;DHT22;11947;50.810;4.394;2022-11-21T18:21:48;7.40;99.90
23540;DHT22;11947;50.810;4.394;2022-11-21T18:24:17;7.50;99.90
23540;DHT22;11947;50.810;4.394;2022-11-21T18:26:43;7.50;99.90
23540;DHT22;11947;50.810;4.394;2022-11-21T18:29:33;7.50;99.90
23540;DHT22;11947;50.810;4.394;2022-11-21T18:32:00;7.40;99.90
23540;DHT22;11947;50.810;4.394;2022-11-21T18:34:26;7.50;99.90
23540;DHT22;11947;50.810;4.394;2022-11-21T18:36:51;7.50;99.90
23540;DHT22;11947;50.810;4.394;2022-11-21T18:39:17;7.50;99.90
23540;DHT22;11947;50.810;4.394;2022-11-21T18:41:42;7.50;99.90
23540;DHT22;11947;50.810;4.394;2022-11-21T18:44:08;7.60;99.90
23540;DHT22;11947;50.810;4.394;2022-11-21T18:46:36;7.60;99.90
23540;DHT22;11947;50.810;4.394;2022-11-21T18:49:02;7.50;99.90
23540;DHT22;11947;50.810;4.394;2022-11-21T18:51:29;7.50;99.90
23540;DHT22;11947;50.810;4.394;2022-11-21T18:54:00;7.50;99.90
23540;DHT22;11947;50.810;4.394;2022-11-21T18:56:34;7.40;99.90
23540;DHT22;11947;50.810;4.394;2022-11-21T18:59:04;7.50;99.90
23540;DHT22;11947;50.810;4.394;2022-11-21T19:01:31;7.50;99.90
23540;DHT22;11947;50.810;4.394;2022-11-21T19:03:57;7.50;99.90
23540;DHT22;11947;50.810;4.394;2022-11-21T19:06:25;7.40;99.90
23540;DHT22;11947;50.810;4.394;2022-11-21T19:08:51;7.40;99.90
23540;DHT22;11947;50.810;4.394;2022-11-21T19:11:18;7.30;99.90
23540;DHT22;11947;50.810;4.394;2022-11-21T19:13:45;7.30;99.90
23540;DHT22;11947;50.810;4.394;2022-11-21T19:16:13;7.40;99.90
23540;DHT22;11947;50.810;4.394;2022-11-21T19:18:39;7.30;99.90
23540;DHT22;11947;50.810;4.394;2022-11-21T19:21:15;7.40;99.90
23540;DHT22;11947;50.810;4.394;2022-11-21T19:23:42;7.30;99.90
23540;DHT22;11947;50.810;4.394;2022-11-21T19:26:29;7.40;99.90
23540;DHT22;11947;50.810;4.394;2022-11-21T19:28:56;7.40;99.90